createdAt,value
2018-08-11T00:00:24.242Z,98992.75
2018-08-11T00:02:51.827Z,98999.87
2018-08-11T00:05:19.138Z,98993.51
2018-08-11T00:07:46.990Z,98991.86
2018-08-11T00:10:14.306Z,98991.64
2018-08-11T00:12:41.694Z,98985.59
2018-08-11T00:15:11.897Z,98980.48
2018-08-11T00:20:38.262Z,98982.75
2018-08-11T00:23:06.080Z,98978.23
2018-08-11T00:25:33.334Z,98978.81
2018-08-11T00:28:00.643Z,98976.48
2018-08-11T00:30:27.946Z,98972.90
2018-08-11T00:32:55.263Z,98971.72
2018-08-11T00:35:22.531Z,98978.21
2018-08-11T00:37:49.821Z,98978.64
2018-08-11T00:40:19.046Z,98967.33
2018-08-11T00:42:47.431Z,98968.39
2018-08-11T00:45:15.459Z,98956.02
2018-08-11T00:47:42.911Z,98959.28
2018-08-11T00:50:17.499Z,98964.25
2018-08-11T00:52:44.884Z,98965.47
2018-08-11T00:55:13.083Z,98961.36
2018-08-11T00:57:40.490Z,98962.00
2018-08-11T01:00:11.711Z,98968.84
2018-08-11T01:02:39.570Z,98960.75
2018-08-11T01:05:08.763Z,98967.13
2018-08-11T01:07:36.331Z,98969.72
2018-08-11T01:10:04.235Z,98955.55
2018-08-11T01:12:31.493Z,98954.49
2018-08-11T01:14:58.764Z,98954.88
2018-08-11T01:17:26.043Z,98951.64
2018-08-11T01:19:53.302Z,98951.84
2018-08-11T01:22:20.652Z,98947.41
2018-08-11T01:24:47.891Z,98948.97
2018-08-11T01:27:15.169Z,98944.98
2018-08-11T01:29:42.442Z,98934.12
2018-08-11T01:32:09.776Z,98938.96
2018-08-11T01:34:37.100Z,98935.36
2018-08-11T01:37:04.369Z,98940.38
2018-08-11T01:39:31.649Z,98939.91
2018-08-11T01:41:58.919Z,98929.06
2018-08-11T01:44:26.251Z,98932.84
2018-08-11T01:46:53.548Z,98939.50
2018-08-11T01:49:20.860Z,98937.16
2018-08-11T01:51:48.181Z,98932.89
2018-08-11T01:54:15.460Z,98934.93
2018-08-11T01:56:42.754Z,98928.33
2018-08-11T01:59:09.994Z,98923.41
2018-08-11T02:01:37.243Z,98926.69
2018-08-11T02:04:06.164Z,98930.59
2018-08-11T02:06:33.445Z,98922.89
2018-08-11T02:09:00.724Z,98920.19
2018-08-11T02:11:27.970Z,98919.33
2018-08-11T02:13:55.237Z,98920.11
2018-08-11T02:16:22.488Z,98919.33
2018-08-11T02:18:49.751Z,98910.88
2018-08-11T02:21:17.036Z,98914.99
2018-08-11T02:23:44.350Z,98915.06
2018-08-11T02:26:11.612Z,98914.28
2018-08-11T02:28:38.868Z,98915.34
2018-08-11T02:31:06.519Z,98919.48
2018-08-11T02:33:33.836Z,98918.39
2018-08-11T02:36:01.135Z,98914.90
2018-08-11T02:38:28.460Z,98922.55
2018-08-11T02:40:55.717Z,98915.48
2018-08-11T02:43:23.035Z,98916.50
2018-08-11T02:45:50.288Z,98911.05
2018-08-11T02:48:17.622Z,98912.21
2018-08-11T02:50:44.912Z,98913.41
2018-08-11T02:53:12.213Z,98908.36
2018-08-11T02:55:39.462Z,98902.11
2018-08-11T02:58:06.783Z,98907.28
2018-08-11T03:00:34.041Z,98905.43
2018-08-11T03:03:01.464Z,98906.22
2018-08-11T03:05:28.747Z,98902.38
2018-08-11T03:07:55.987Z,98901.16
2018-08-11T03:10:23.404Z,98900.23
2018-08-11T03:12:50.685Z,98904.21
2018-08-11T03:15:18.071Z,98904.54
2018-08-11T03:17:45.361Z,98892.66
2018-08-11T03:20:14.883Z,98899.44
2018-08-11T03:22:43.864Z,98904.21
2018-08-11T03:25:11.410Z,98908.73
2018-08-11T03:27:38.970Z,98908.41
2018-08-11T03:30:06.951Z,98911.25
2018-08-11T03:32:34.270Z,98900.09
2018-08-11T03:35:08.218Z,98900.37
2018-08-11T03:37:35.513Z,98898.11
2018-08-11T03:40:02.875Z,98897.56
2018-08-11T03:42:30.190Z,98901.45
2018-08-11T03:44:57.542Z,98897.31
2018-08-11T03:47:25.367Z,98900.34
2018-08-11T03:49:52.777Z,98898.99
2018-08-11T03:52:20.282Z,98897.67
2018-08-11T03:54:48.610Z,98906.95
2018-08-11T03:57:16.681Z,98898.86
2018-08-11T03:59:44.159Z,98905.25
2018-08-11T04:02:11.539Z,98910.19
2018-08-11T04:04:38.981Z,98906.77
2018-08-11T04:07:06.610Z,98908.64
2018-08-11T04:09:33.971Z,98907.86
2018-08-11T04:12:01.388Z,98904.50
2018-08-11T04:14:28.799Z,98908.88
2018-08-11T04:16:56.428Z,98908.59
2018-08-11T04:19:23.936Z,98904.75
2018-08-11T04:21:51.275Z,98902.63
2018-08-11T04:24:18.659Z,98909.63
2018-08-11T04:26:47.181Z,98912.61
2018-08-11T04:29:14.568Z,98914.66
2018-08-11T04:31:41.975Z,98905.82
2018-08-11T04:34:09.414Z,98912.46
2018-08-11T04:36:36.768Z,98914.26
2018-08-11T04:39:06.766Z,98914.80
2018-08-11T04:41:34.202Z,98918.17
2018-08-11T04:44:02.394Z,98913.67
2018-08-11T04:46:29.833Z,98919.56
2018-08-11T04:48:57.241Z,98914.20
2018-08-11T04:51:24.660Z,98918.33
2018-08-11T04:53:53.050Z,98921.91
2018-08-11T04:56:20.441Z,98913.78
2018-08-11T04:58:47.875Z,98918.83
2018-08-11T05:01:15.707Z,98907.59
2018-08-11T05:03:43.039Z,98913.50
2018-08-11T05:06:10.480Z,98916.82
2018-08-11T05:08:38.536Z,98910.81
2018-08-11T05:11:05.927Z,98908.42
2018-08-11T05:13:33.406Z,98914.20
2018-08-11T05:16:00.923Z,98904.47
2018-08-11T05:18:28.294Z,98911.05
2018-08-11T05:20:55.814Z,98906.54
2018-08-11T05:23:23.759Z,98906.30
2018-08-11T05:25:51.170Z,98908.11
2018-08-11T05:28:19.628Z,98906.50
2018-08-11T05:30:47.035Z,98910.33
2018-08-11T05:33:14.406Z,98912.78
2018-08-11T05:35:42.387Z,98909.97
2018-08-11T05:38:10.345Z,98911.72
2018-08-11T05:40:37.739Z,98919.25
2018-08-11T05:43:05.145Z,98917.42
2018-08-11T05:45:32.709Z,98921.56
2018-08-11T05:48:00.089Z,98921.89
2018-08-11T05:50:27.478Z,98921.34
2018-08-11T05:52:54.947Z,98926.76
2018-08-11T05:55:23.210Z,98920.27
2018-08-11T05:58:01.999Z,98928.18
2018-08-11T06:00:29.593Z,98917.30
2018-08-11T06:02:56.978Z,98924.34
2018-08-11T06:05:24.496Z,98928.43
2018-08-11T06:07:51.867Z,98928.73
2018-08-11T06:10:19.326Z,98926.53
2018-08-11T06:12:46.679Z,98928.58
2018-08-11T06:15:14.097Z,98936.57
2018-08-11T06:17:42.236Z,98934.89
2018-08-11T06:20:10.083Z,98932.09
2018-08-11T06:22:38.407Z,98934.30
2018-08-11T06:25:07.688Z,98941.71
2018-08-11T06:27:35.075Z,98937.33
2018-08-11T06:30:13.099Z,98945.84
2018-08-11T06:32:50.554Z,98941.28
2018-08-11T06:35:17.937Z,98942.11
2018-08-11T06:37:45.351Z,98949.05
2018-08-11T06:40:21.936Z,98936.63
2018-08-11T06:42:49.946Z,98941.33
2018-08-11T06:45:18.118Z,98943.72
2018-08-11T06:47:45.640Z,98944.19
2018-08-11T06:50:13.090Z,98942.72
2018-08-11T06:52:40.486Z,98938.61
2018-08-11T06:55:07.931Z,98946.33
2018-08-11T06:57:35.262Z,98945.95
2018-08-11T07:00:02.614Z,98946.09
2018-08-11T07:02:30.068Z,98943.61
2018-08-11T07:04:57.422Z,98948.42
2018-08-11T07:07:24.840Z,98951.13
2018-08-11T07:09:52.230Z,98944.81
2018-08-11T07:12:20.184Z,98945.86
2018-08-11T07:14:47.621Z,98942.94
2018-08-11T07:17:15.021Z,98942.27
2018-08-11T07:19:44.976Z,98941.98
2018-08-11T07:22:12.342Z,98944.14
2018-08-11T07:24:39.651Z,98942.05
2018-08-11T07:27:07.424Z,98933.47
2018-08-11T07:29:34.796Z,98944.07
2018-08-11T07:32:02.221Z,98942.18
2018-08-11T07:34:29.592Z,98949.04
2018-08-11T07:36:57.850Z,98954.57
2018-08-11T07:39:25.248Z,98955.83
2018-08-11T07:41:52.623Z,98955.45
2018-08-11T07:44:20.727Z,98952.83
2018-08-11T07:46:49.455Z,98959.95
2018-08-11T07:49:16.832Z,98964.11
2018-08-11T07:51:44.248Z,98956.34
2018-08-11T07:54:11.607Z,98962.39
2018-08-11T07:56:39.019Z,98960.94
2018-08-11T07:59:06.535Z,98953.12
2018-08-11T08:01:34.221Z,98950.44
2018-08-11T08:04:01.633Z,98948.93
2018-08-11T08:06:29.150Z,98944.02
2018-08-11T08:08:56.527Z,98949.64
2018-08-11T08:11:23.946Z,98945.87
2018-08-11T08:13:53.339Z,98947.05
2018-08-11T08:16:20.795Z,98964.45
2018-08-11T08:18:48.451Z,98961.55
2018-08-11T08:21:16.403Z,98966.63
2018-08-11T08:23:44.131Z,98976.28
2018-08-11T08:26:12.354Z,98974.20
2018-08-11T08:28:39.862Z,98974.85
2018-08-11T08:31:07.258Z,98980.69
2018-08-11T08:33:36.005Z,98981.86
2018-08-11T08:36:05.380Z,98986.91
2018-08-11T08:38:48.314Z,98984.91
2018-08-11T08:41:15.821Z,98971.52
2018-08-11T08:43:43.239Z,98977.30
2018-08-11T08:46:10.678Z,98973.19
2018-08-11T08:48:38.564Z,98967.05
2018-08-11T08:51:06.130Z,98962.81
2018-08-11T08:53:33.621Z,98957.73
2018-08-11T08:56:01.074Z,98972.28
2018-08-11T08:58:28.840Z,98967.09
2018-08-11T09:00:56.296Z,98966.92
2018-08-11T09:03:23.883Z,98965.80
2018-08-11T09:05:51.896Z,98969.64
2018-08-11T09:08:19.504Z,98974.76
2018-08-11T09:10:46.916Z,98970.19
2018-08-11T09:13:14.402Z,98979.79
2018-08-11T09:15:41.928Z,98967.99
2018-08-11T09:18:10.471Z,98972.98
2018-08-11T09:20:37.827Z,98973.88
2018-08-11T09:23:05.467Z,98974.23
2018-08-11T09:25:33.167Z,98975.63
2018-08-11T09:28:00.657Z,98973.59
2018-08-11T09:30:28.911Z,98967.57
2018-08-11T09:32:56.430Z,98975.88
2018-08-11T09:35:24.203Z,98972.94
2018-08-11T09:37:52.272Z,98970.09
2018-08-11T09:40:19.687Z,98981.40
2018-08-11T09:42:47.274Z,98970.65
2018-08-11T09:45:14.726Z,98986.39
2018-08-11T09:47:42.134Z,98983.54
2018-08-11T09:50:09.599Z,99006.22
2018-08-11T09:52:36.993Z,98998.93
2018-08-11T09:55:04.374Z,98990.44
2018-08-11T09:57:31.805Z,98994.56
2018-08-11T09:59:59.384Z,98995.05
2018-08-11T10:02:26.789Z,98991.78
2018-08-11T10:04:54.078Z,98989.05
2018-08-11T10:07:22.412Z,98987.11
2018-08-11T10:09:55.307Z,98979.44
2018-08-11T10:12:27.256Z,98977.69
2018-08-11T10:14:54.970Z,98983.92
2018-08-11T10:17:30.375Z,98965.34
2018-08-11T10:19:59.197Z,98973.30
2018-08-11T10:22:27.168Z,98969.75
2018-08-11T10:24:55.448Z,98971.45
2018-08-11T10:27:23.596Z,98964.34
2018-08-11T10:29:51.619Z,98973.91
2018-08-11T10:32:19.026Z,98965.59
2018-08-11T10:34:46.408Z,98971.13
2018-08-11T10:37:13.722Z,98984.14
2018-08-11T10:39:42.899Z,98987.25
2018-08-11T10:42:10.182Z,98986.63
2018-08-11T10:44:37.585Z,98968.46
2018-08-11T10:47:05.855Z,98975.34
2018-08-11T10:49:33.429Z,98958.30
2018-08-11T10:52:00.780Z,98964.64
2018-08-11T10:54:29.022Z,98966.11
2018-08-11T10:56:56.377Z,98967.09
2018-08-11T10:59:23.822Z,98956.20
2018-08-11T11:01:51.802Z,98956.87
2018-08-11T11:04:19.376Z,98950.29
2018-08-11T11:06:48.956Z,98955.34
2018-08-11T11:09:16.478Z,98939.93
2018-08-11T11:11:43.897Z,98963.02
2018-08-11T11:14:11.393Z,98958.48
2018-08-11T11:16:39.101Z,98955.13
2018-08-11T11:19:06.818Z,98931.53
2018-08-11T11:21:34.293Z,98945.50
2018-08-11T11:24:01.551Z,98940.09
2018-08-11T11:26:28.794Z,98942.96
2018-08-11T11:28:56.063Z,98936.02
2018-08-11T11:31:23.343Z,98941.66
2018-08-11T11:33:50.643Z,98937.55
2018-08-11T11:36:17.921Z,98938.22
2018-08-11T11:38:45.240Z,98941.56
2018-08-11T11:41:12.469Z,98938.39
2018-08-11T11:43:39.916Z,98947.08
2018-08-11T11:46:07.330Z,98950.75
2018-08-11T11:48:34.789Z,98946.69
2018-08-11T11:51:02.274Z,98947.66
2018-08-11T11:53:29.666Z,98947.52
2018-08-11T11:55:57.096Z,98945.97
2018-08-11T11:58:26.435Z,98945.48
2018-08-11T12:00:56.201Z,98950.66
2018-08-11T12:03:24.542Z,98938.14
2018-08-11T12:05:53.904Z,98937.28
2018-08-11T12:08:21.452Z,98936.47
2018-08-11T12:10:50.309Z,98941.63
2018-08-11T12:13:17.821Z,98943.55
2018-08-11T12:15:45.154Z,98946.72
2018-08-11T12:18:12.634Z,98948.05
2018-08-11T12:20:40.103Z,98956.15
2018-08-11T12:23:10.294Z,98949.84
2018-08-11T12:25:37.746Z,98938.62
2018-08-11T12:28:05.604Z,98945.53
2018-08-11T12:30:33.034Z,98948.11
2018-08-11T12:33:00.397Z,98945.19
2018-08-11T12:35:27.908Z,98945.00
2018-08-11T12:37:55.336Z,98950.03
2018-08-11T12:40:22.718Z,98940.79
2018-08-11T12:42:50.233Z,98944.33
2018-08-11T12:45:17.676Z,98937.84
2018-08-11T12:47:45.319Z,98929.18
2018-08-11T12:50:12.745Z,98937.84
2018-08-11T12:52:40.150Z,98933.41
2018-08-11T12:55:07.715Z,98929.22
2018-08-11T12:57:35.083Z,98931.97
2018-08-11T13:00:02.617Z,98932.56
2018-08-11T13:02:30.000Z,98928.11
2018-08-11T13:04:57.404Z,98929.72
2018-08-11T13:07:24.891Z,98930.90
2018-08-11T13:09:52.354Z,98932.81
2018-08-11T13:12:20.746Z,98924.59
2018-08-11T13:14:48.915Z,98930.12
2018-08-11T13:17:16.563Z,98929.20
2018-08-11T13:19:43.947Z,98923.70
2018-08-11T13:22:14.306Z,98935.33
2018-08-11T13:24:41.728Z,98922.88
2018-08-11T13:27:09.748Z,98923.46
2018-08-11T13:29:39.668Z,98923.34
2018-08-11T13:32:07.288Z,98921.54
2018-08-11T13:34:34.665Z,98920.36
2018-08-11T13:37:02.090Z,98910.48
2018-08-11T13:39:29.517Z,98907.25
2018-08-11T13:41:57.068Z,98917.55
2018-08-11T13:44:24.950Z,98918.77
2018-08-11T13:46:52.353Z,98913.36
2018-08-11T13:49:19.853Z,98914.56
2018-08-11T13:51:47.266Z,98917.52
2018-08-11T13:54:15.711Z,98914.56
2018-08-11T13:56:43.346Z,98902.25
2018-08-11T13:59:11.653Z,98907.58
2018-08-11T14:01:39.251Z,98908.60
2018-08-11T14:04:06.706Z,98906.15
2018-08-11T14:06:34.170Z,98911.05
2018-08-11T14:09:01.563Z,98904.19
2018-08-11T14:11:29.181Z,98912.45
2018-08-11T14:13:56.603Z,98914.83
2018-08-11T14:16:24.143Z,98906.86
2018-08-11T14:18:52.493Z,98904.77
2018-08-11T14:21:19.932Z,98911.41
2018-08-11T14:23:47.297Z,98911.45
2018-08-11T14:26:14.730Z,98912.09
2018-08-11T14:28:42.287Z,98900.32
2018-08-11T14:31:09.895Z,98904.77
2018-08-11T14:33:37.326Z,98918.26
2018-08-11T14:36:04.848Z,98901.60
2018-08-11T14:38:32.307Z,98904.27
2018-08-11T14:40:59.748Z,98905.30
2018-08-11T14:43:27.242Z,98901.30
2018-08-11T14:45:54.642Z,98891.61
2018-08-11T14:48:22.198Z,98884.26
2018-08-11T14:50:49.709Z,98881.37
2018-08-11T14:53:18.357Z,98891.66
2018-08-11T14:55:45.819Z,98894.31
2018-08-11T14:58:13.209Z,98893.21
2018-08-11T15:00:40.615Z,98896.80
2018-08-11T15:03:08.329Z,98904.08
2018-08-11T15:05:36.138Z,98891.88
2018-08-11T15:08:03.560Z,98886.47
2018-08-11T15:10:31.152Z,98884.62
2018-08-11T15:12:58.609Z,98887.75
2018-08-11T15:15:26.032Z,98888.39
2018-08-11T15:17:53.506Z,98895.06
2018-08-11T15:20:20.954Z,98891.85
2018-08-11T15:22:48.444Z,98888.61
2018-08-11T15:25:16.483Z,98888.84
2018-08-11T15:27:44.830Z,98884.16
2018-08-11T15:30:12.452Z,98882.17
2018-08-11T15:32:40.343Z,98885.83
2018-08-11T15:35:09.691Z,98873.45
2018-08-11T15:37:37.125Z,98875.62
2018-08-11T15:40:06.259Z,98870.73
2018-08-11T15:42:33.977Z,98872.37
2018-08-11T15:45:01.493Z,98874.88
2018-08-11T15:47:29.022Z,98868.56
2018-08-11T15:49:56.565Z,98863.81
2018-08-11T15:52:25.440Z,98865.11
2018-08-11T15:54:53.587Z,98870.97
2018-08-11T15:57:21.894Z,98876.34
2018-08-11T15:59:49.514Z,98873.66
2018-08-11T16:02:17.031Z,98874.71
2018-08-11T16:04:44.396Z,98874.14
2018-08-11T16:07:12.490Z,98875.73
2018-08-11T16:09:40.146Z,98876.09
2018-08-11T16:12:07.771Z,98874.44
2018-08-11T16:14:35.162Z,98875.13
2018-08-11T16:17:02.555Z,98870.28
2018-08-11T16:19:29.931Z,98878.51
2018-08-11T16:22:04.985Z,98876.64
2018-08-11T16:24:32.413Z,98881.59
2018-08-11T16:26:59.846Z,98874.77
2018-08-11T16:29:27.468Z,98886.11
2018-08-11T16:31:55.123Z,98885.75
2018-08-11T16:34:22.529Z,98885.73
2018-08-11T16:36:50.039Z,98888.73
2018-08-11T16:39:17.618Z,98894.75
2018-08-11T16:41:45.055Z,98890.98
2018-08-11T16:44:12.473Z,98890.98
2018-08-11T16:46:49.394Z,98896.77
2018-08-11T16:49:27.409Z,98891.72
2018-08-11T16:52:04.917Z,98881.97
2018-08-11T16:54:42.452Z,98888.34
2018-08-11T16:57:20.127Z,98892.04
2018-08-11T16:59:47.572Z,98894.58
2018-08-11T17:02:15.063Z,98900.17
2018-08-11T17:04:44.464Z,98897.79
2018-08-11T17:07:15.249Z,98908.39
2018-08-11T17:09:46.959Z,98898.02
2018-08-11T17:12:16.554Z,98908.92
2018-08-11T17:14:45.372Z,98903.08
2018-08-11T17:17:14.125Z,98901.72
2018-08-11T17:19:44.244Z,98916.05
2018-08-11T17:22:14.047Z,98902.58
2018-08-11T17:24:41.996Z,98912.84
2018-08-11T17:27:11.772Z,98911.63
2018-08-11T17:29:40.579Z,98907.98
2018-08-11T17:32:10.045Z,98909.06
2018-08-11T17:34:39.473Z,98912.22
2018-08-11T17:37:08.315Z,98909.52
2018-08-11T17:39:37.013Z,98916.35
2018-08-11T17:42:11.031Z,98914.34
2018-08-11T17:44:41.966Z,98912.12
2018-08-11T17:47:11.654Z,98907.66
2018-08-11T17:49:51.600Z,98909.55
2018-08-11T17:52:33.496Z,98914.73
2018-08-11T17:55:02.286Z,98909.17
2018-08-11T17:57:31.510Z,98913.19
2018-08-11T18:00:00.100Z,98910.16
2018-08-11T18:02:28.716Z,98920.38
2018-08-11T18:04:59.764Z,98921.33
2018-08-11T18:07:28.025Z,98924.66
2018-08-11T18:09:57.588Z,98928.18
2018-08-11T18:12:25.591Z,98927.05
2018-08-11T18:14:54.704Z,98931.52
2018-08-11T18:17:23.826Z,98934.09
2018-08-11T18:19:53.154Z,98934.37
2018-08-11T18:22:21.213Z,98937.75
2018-08-11T18:24:50.469Z,98941.20
2018-08-11T18:27:18.773Z,98939.52
2018-08-11T18:29:46.877Z,98946.68
2018-08-11T18:32:16.280Z,98951.08
2018-08-11T18:34:45.207Z,98952.77
2018-08-11T18:37:14.644Z,98950.44
2018-08-11T18:39:42.638Z,98957.28
2018-08-11T18:42:13.094Z,98957.47
2018-08-11T18:44:41.144Z,98959.15
2018-08-11T18:47:10.928Z,98958.63
2018-08-11T18:49:42.240Z,98959.30
2018-08-11T18:52:11.819Z,98963.80
2018-08-11T18:54:39.470Z,98961.09
2018-08-11T18:57:06.970Z,98972.08
2018-08-11T18:59:34.480Z,98981.72
2018-08-11T19:02:01.870Z,98981.47
2018-08-11T19:04:29.277Z,98989.55
2018-08-11T19:06:56.679Z,98994.77
2018-08-11T19:09:24.095Z,98989.63
2018-08-11T19:11:51.410Z,98994.75
2018-08-11T19:14:20.370Z,99000.52
2018-08-11T19:16:48.035Z,98996.98
2018-08-11T19:19:15.524Z,99004.77
2018-08-11T19:21:42.950Z,99007.72
2018-08-11T19:24:10.280Z,99008.02
2018-08-11T19:26:39.135Z,99008.34
2018-08-11T19:29:06.555Z,99012.76
2018-08-11T19:31:33.880Z,99013.59
2018-08-11T19:34:01.349Z,99014.95
2018-08-11T19:36:28.853Z,99013.91
2018-08-11T19:38:56.224Z,99019.44
2018-08-11T19:41:24.266Z,99013.53
2018-08-11T19:43:51.763Z,99021.02
2018-08-11T19:46:19.216Z,99018.77
2018-08-11T19:48:47.192Z,99019.67
2018-08-11T19:51:14.555Z,99028.19
2018-08-11T19:53:41.887Z,99022.16
2018-08-11T19:56:09.811Z,99021.34
2018-08-11T19:58:37.168Z,99026.86
2018-08-11T20:01:04.594Z,99022.45
2018-08-11T20:03:31.927Z,99022.43
2018-08-11T20:05:59.349Z,99029.71
2018-08-11T20:08:26.751Z,99023.98
2018-08-11T20:10:54.228Z,99027.41
2018-08-11T20:13:21.581Z,99025.86
2018-08-11T20:15:49.002Z,99031.94
2018-08-11T20:18:16.395Z,99027.59
2018-08-11T20:20:43.727Z,99027.79
2018-08-11T20:23:11.648Z,99024.03
2018-08-11T20:25:39.284Z,99029.59
2018-08-11T20:28:06.620Z,99033.22
2018-08-11T20:30:34.731Z,99034.36
2018-08-11T20:33:02.163Z,99029.24
2018-08-11T20:35:29.583Z,99041.33
2018-08-11T20:37:57.027Z,99034.83
2018-08-11T20:40:24.471Z,99031.77
2018-08-11T20:42:52.048Z,99037.10
2018-08-11T20:45:19.517Z,99036.09
2018-08-11T20:47:46.885Z,99040.06
2018-08-11T20:50:14.265Z,99038.27
2018-08-11T20:52:42.474Z,99041.34
2018-08-11T20:55:10.635Z,99047.36
2018-08-11T20:57:39.043Z,99038.63
2018-08-11T21:00:09.565Z,99040.23
2018-08-11T21:02:39.614Z,99039.63
2018-08-11T21:05:10.338Z,99041.41
2018-08-11T21:07:38.217Z,99053.31
2018-08-11T21:10:07.048Z,99045.09
2018-08-11T21:12:34.666Z,99048.55
2018-08-11T21:15:01.990Z,99048.72
2018-08-11T21:17:29.482Z,99048.87
2018-08-11T21:19:56.752Z,99045.48
2018-08-11T21:22:24.242Z,99046.94
2018-08-11T21:24:52.240Z,99050.69
2018-08-11T21:27:19.506Z,99048.15
2018-08-11T21:29:46.752Z,99049.19
2018-08-11T21:32:14.595Z,99042.33
2018-08-11T21:34:41.836Z,99044.83
2018-08-11T21:37:09.107Z,99043.80
2018-08-11T21:39:36.346Z,99048.52
2018-08-11T21:42:03.647Z,99053.80
2018-08-11T21:44:30.875Z,99046.80
2018-08-11T21:46:58.159Z,99040.80
2018-08-11T21:49:25.773Z,99041.49
2018-08-11T21:51:53.482Z,99037.55
2018-08-11T21:54:20.751Z,99038.87
2018-08-11T21:56:48.909Z,99038.11
2018-08-11T21:59:16.187Z,99040.92
2018-08-11T22:01:43.476Z,99041.14
2018-08-11T22:04:10.719Z,99039.73
2018-08-11T22:06:37.998Z,99045.02
2018-08-11T22:09:08.794Z,99040.95
2018-08-11T22:11:36.044Z,99034.55
2018-08-11T22:14:03.449Z,99036.84
2018-08-11T22:16:30.761Z,99038.12
2018-08-11T22:18:58.007Z,99036.20
2018-08-11T22:21:25.283Z,99038.52
2018-08-11T22:23:53.864Z,99037.20
2018-08-11T22:26:21.186Z,99034.88
2018-08-11T22:28:48.575Z,99035.13
2018-08-11T22:31:15.842Z,99032.79
2018-08-11T22:33:43.145Z,99031.48
2018-08-11T22:36:10.383Z,99029.09
2018-08-11T22:38:37.642Z,99029.13
2018-08-11T22:41:04.959Z,99027.72
2018-08-11T22:43:32.216Z,99031.69
2018-08-11T22:45:59.523Z,99034.91
2018-08-11T22:48:26.751Z,99035.11
2018-08-11T22:50:54.096Z,99033.17
2018-08-11T22:53:21.355Z,99027.28
2018-08-11T22:55:48.603Z,99027.73
2018-08-11T22:58:15.846Z,99027.42
2018-08-11T23:00:43.122Z,99028.50
2018-08-11T23:03:10.387Z,99026.86
2018-08-11T23:05:37.644Z,99026.00
2018-08-11T23:08:04.993Z,99026.96
2018-08-11T23:10:32.258Z,99026.91
2018-08-11T23:12:59.594Z,99022.95
2018-08-11T23:15:26.850Z,99010.91
2018-08-11T23:17:54.146Z,99013.49
2018-08-11T23:20:21.495Z,99010.85
2018-08-11T23:22:48.819Z,99006.90
2018-08-11T23:25:16.411Z,99015.45
2018-08-11T23:27:43.810Z,99012.18
2018-08-11T23:30:12.835Z,99011.05
2018-08-11T23:32:40.968Z,99005.84
2018-08-11T23:35:08.544Z,99010.80
2018-08-11T23:37:35.883Z,99002.02
2018-08-11T23:40:03.942Z,99000.58
2018-08-11T23:42:31.234Z,99008.03
2018-08-11T23:44:58.537Z,99006.22
2018-08-11T23:47:25.860Z,99001.85
2018-08-11T23:49:53.238Z,99002.84
2018-08-11T23:52:20.584Z,99003.58
2018-08-11T23:54:47.887Z,99002.84
2018-08-11T23:57:15.165Z,98996.34
2018-08-11T23:59:42.495Z,98998.12
